sensor_id;sensor_type;location;lat;lon;timestamp;P1;durP1;ratioP1;P2;durP2;ratioP2
55674;SDS011;41562;44.330;23.802;2023-07-24T00:02:22;4.85;;;2.75;;
55674;SDS011;41562;44.330;23.802;2023-07-24T00:05:21;3.17;;;2.30;;
55674;SDS011;41562;44.330;23.802;2023-07-24T00:08:13;5.47;;;2.72;;
55674;SDS011;41562;44.330;23.802;2023-07-24T00:11:08;4.03;;;2.38;;
55674;SDS011;41562;44.330;23.802;2023-07-24T00:14:15;5.60;;;2.88;;
55674;SDS011;41562;44.330;23.802;2023-07-24T00:17:21;3.05;;;2.30;;
55674;SDS011;41562;44.330;23.802;2023-07-24T00:20:20;5.35;;;2.55;;
55674;SDS011;41562;44.330;23.802;2023-07-24T00:23:21;2.72;;;2.08;;
55674;SDS011;41562;44.330;23.802;2023-07-24T00:26:19;4.28;;;2.15;;
55674;SDS011;41562;44.330;23.802;2023-07-24T00:29:11;5.75;;;2.70;;
55674;SDS011;41562;44.330;23.802;2023-07-24T00:32:08;3.45;;;2.05;;
55674;SDS011;41562;44.330;23.802;2023-07-24T00:35:06;3.30;;;2.15;;
55674;SDS011;41562;44.330;23.802;2023-07-24T00:38:09;4.28;;;2.30;;
55674;SDS011;41562;44.330;23.802;2023-07-24T00:41:04;4.55;;;2.08;;
55674;SDS011;41562;44.330;23.802;2023-07-24T00:44:02;3.55;;;2.60;;
55674;SDS011;41562;44.330;23.802;2023-07-24T00:47:01;3.08;;;2.10;;
55674;SDS011;41562;44.330;23.802;2023-07-24T00:53:17;11.23;;;2.28;;
55674;SDS011;41562;44.330;23.802;2023-07-24T00:56:13;2.95;;;1.90;;
55674;SDS011;41562;44.330;23.802;2023-07-24T00:59:05;4.05;;;1.83;;
55674;SDS011;41562;44.330;23.802;2023-07-24T01:02:00;3.80;;;1.50;;
55674;SDS011;41562;44.330;23.802;2023-07-24T01:04:58;3.63;;;1.60;;
55674;SDS011;41562;44.330;23.802;2023-07-24T01:07:54;1.75;;;1.42;;
55674;SDS011;41562;44.330;23.802;2023-07-24T01:10:52;6.55;;;2.67;;
55674;SDS011;41562;44.330;23.802;2023-07-24T01:14:32;3.05;;;2.00;;
55674;SDS011;41562;44.330;23.802;2023-07-24T01:17:15;3.63;;;2.13;;
55674;SDS011;41562;44.330;23.802;2023-07-24T01:20:15;1.85;;;1.27;;
55674;SDS011;41562;44.330;23.802;2023-07-24T01:26:20;2.55;;;2.05;;
55674;SDS011;41562;44.330;23.802;2023-07-24T01:29:24;3.40;;;1.90;;
55674;SDS011;41562;44.330;23.802;2023-07-24T01:32:18;2.60;;;2.00;;
55674;SDS011;41562;44.330;23.802;2023-07-24T01:35:23;2.85;;;1.80;;
55674;SDS011;41562;44.330;23.802;2023-07-24T01:38:25;2.60;;;1.98;;
55674;SDS011;41562;44.330;23.802;2023-07-24T01:41:22;2.90;;;1.92;;
55674;SDS011;41562;44.330;23.802;2023-07-24T01:44:24;2.75;;;1.83;;
55674;SDS011;41562;44.330;23.802;2023-07-24T01:47:16;2.08;;;1.65;;
55674;SDS011;41562;44.330;23.802;2023-07-24T01:50:20;3.40;;;2.10;;
55674;SDS011;41562;44.330;23.802;2023-07-24T01:53:12;2.53;;;1.65;;
55674;SDS011;41562;44.330;23.802;2023-07-24T01:56:08;2.05;;;1.58;;
55674;SDS011;41562;44.330;23.802;2023-07-24T01:59:00;3.50;;;2.08;;
55674;SDS011;41562;44.330;23.802;2023-07-24T02:01:52;3.20;;;1.92;;
55674;SDS011;41562;44.330;23.802;2023-07-24T02:04:50;2.90;;;2.08;;
55674;SDS011;41562;44.330;23.802;2023-07-24T02:07:45;2.95;;;1.85;;
55674;SDS011;41562;44.330;23.802;2023-07-24T02:13:52;4.18;;;2.28;;
55674;SDS011;41562;44.330;23.802;2023-07-24T02:16:44;1.98;;;1.88;;
55674;SDS011;41562;44.330;23.802;2023-07-24T02:19:46;2.15;;;1.67;;
55674;SDS011;41562;44.330;23.802;2023-07-24T02:22:37;2.35;;;1.48;;
55674;SDS011;41562;44.330;23.802;2023-07-24T02:25:32;2.85;;;2.03;;
55674;SDS011;41562;44.330;23.802;2023-07-24T02:28:30;3.25;;;2.13;;
55674;SDS011;41562;44.330;23.802;2023-07-24T02:31:27;8.98;;;1.77;;
55674;SDS011;41562;44.330;23.802;2023-07-24T02:34:23;4.45;;;1.80;;
55674;SDS011;41562;44.330;23.802;2023-07-24T02:37:22;2.50;;;1.70;;
55674;SDS011;41562;44.330;23.802;2023-07-24T02:40:17;3.35;;;1.63;;
55674;SDS011;41562;44.330;23.802;2023-07-24T02:43:17;2.55;;;2.03;;
55674;SDS011;41562;44.330;23.802;2023-07-24T02:46:15;2.92;;;1.58;;
55674;SDS011;41562;44.330;23.802;2023-07-24T02:49:07;2.95;;;1.77;;
55674;SDS011;41562;44.330;23.802;2023-07-24T02:52:04;4.07;;;2.28;;
55674;SDS011;41562;44.330;23.802;2023-07-24T02:55:00;3.08;;;1.92;;
55674;SDS011;41562;44.330;23.802;2023-07-24T02:57:58;2.88;;;1.58;;
55674;SDS011;41562;44.330;23.802;2023-07-24T03:00:53;2.58;;;1.88;;
55674;SDS011;41562;44.330;23.802;2023-07-24T03:03:55;2.20;;;1.20;;
55674;SDS011;41562;44.330;23.802;2023-07-24T03:06:49;2.85;;;1.67;;
55674;SDS011;41562;44.330;23.802;2023-07-24T03:09:44;2.95;;;1.55;;
55674;SDS011;41562;44.330;23.802;2023-07-24T03:12:38;4.07;;;1.73;;
55674;SDS011;41562;44.330;23.802;2023-07-24T03:15:36;2.53;;;1.73;;
55674;SDS011;41562;44.330;23.802;2023-07-24T03:18:27;4.75;;;1.83;;
55674;SDS011;41562;44.330;23.802;2023-07-24T03:21:32;2.17;;;1.70;;
55674;SDS011;41562;44.330;23.802;2023-07-24T03:24:27;5.82;;;1.92;;
55674;SDS011;41562;44.330;23.802;2023-07-24T03:27:19;2.00;;;1.50;;
55674;SDS011;41562;44.330;23.802;2023-07-24T03:30:11;4.00;;;1.83;;
55674;SDS011;41562;44.330;23.802;2023-07-24T03:33:03;3.70;;;1.83;;
55674;SDS011;41562;44.330;23.802;2023-07-24T03:36:03;5.35;;;2.30;;
55674;SDS011;41562;44.330;23.802;2023-07-24T03:38:55;3.45;;;2.13;;
55674;SDS011;41562;44.330;23.802;2023-07-24T03:41:50;3.20;;;1.92;;
55674;SDS011;41562;44.330;23.802;2023-07-24T03:44:48;2.80;;;1.73;;
55674;SDS011;41562;44.330;23.802;2023-07-24T03:47:47;2.53;;;1.45;;
55674;SDS011;41562;44.330;23.802;2023-07-24T03:50:42;2.40;;;1.65;;
55674;SDS011;41562;44.330;23.802;2023-07-24T03:53:41;2.75;;;1.42;;
55674;SDS011;41562;44.330;23.802;2023-07-24T03:56:32;3.92;;;1.98;;
55674;SDS011;41562;44.330;23.802;2023-07-24T03:59:30;1.88;;;1.48;;
55674;SDS011;41562;44.330;23.802;2023-07-24T04:02:25;2.17;;;1.50;;
55674;SDS011;41562;44.330;23.802;2023-07-24T04:05:24;2.40;;;0.98;;
55674;SDS011;41562;44.330;23.802;2023-07-24T04:08:15;3.85;;;2.08;;
55674;SDS011;41562;44.330;23.802;2023-07-24T04:11:10;2.35;;;1.70;;
55674;SDS011;41562;44.330;23.802;2023-07-24T04:14:09;2.97;;;1.48;;
55674;SDS011;41562;44.330;23.802;2023-07-24T04:17:04;1.90;;;1.27;;
55674;SDS011;41562;44.330;23.802;2023-07-24T04:19:59;2.85;;;1.60;;
55674;SDS011;41562;44.330;23.802;2023-07-24T04:22:54;5.03;;;1.58;;
55674;SDS011;41562;44.330;23.802;2023-07-24T04:25:51;3.47;;;1.27;;
55674;SDS011;41562;44.330;23.802;2023-07-24T04:28:43;2.28;;;1.42;;
55674;SDS011;41562;44.330;23.802;2023-07-24T04:31:35;3.15;;;1.67;;
55674;SDS011;41562;44.330;23.802;2023-07-24T04:34:30;2.30;;;1.42;;
55674;SDS011;41562;44.330;23.802;2023-07-24T04:37:25;2.10;;;1.55;;
55674;SDS011;41562;44.330;23.802;2023-07-24T04:40:17;4.68;;;2.20;;
55674;SDS011;41562;44.330;23.802;2023-07-24T04:43:16;2.92;;;1.92;;
55674;SDS011;41562;44.330;23.802;2023-07-24T04:46:15;4.03;;;1.77;;
55674;SDS011;41562;44.330;23.802;2023-07-24T04:49:07;4.10;;;2.20;;
55674;SDS011;41562;44.330;23.802;2023-07-24T04:51:59;3.17;;;2.00;;
55674;SDS011;41562;44.330;23.802;2023-07-24T04:54:53;3.40;;;1.60;;
55674;SDS011;41562;44.330;23.802;2023-07-24T04:57:45;3.65;;;2.50;;
55674;SDS011;41562;44.330;23.802;2023-07-24T05:00:37;2.15;;;1.75;;
55674;SDS011;41562;44.330;23.802;2023-07-24T05:03:30;2.47;;;1.63;;
55674;SDS011;41562;44.330;23.802;2023-07-24T05:06:25;3.17;;;1.80;;
55674;SDS011;41562;44.330;23.802;2023-07-24T05:09:17;3.33;;;1.77;;
55674;SDS011;41562;44.330;23.802;2023-07-24T05:12:10;4.45;;;2.45;;
55674;SDS011;41562;44.330;23.802;2023-07-24T05:15:02;4.13;;;2.55;;
55674;SDS011;41562;44.330;23.802;2023-07-24T05:17:57;3.53;;;1.98;;
55674;SDS011;41562;44.330;23.802;2023-07-24T05:20:49;4.13;;;1.95;;
55674;SDS011;41562;44.330;23.802;2023-07-24T05:23:42;3.70;;;2.10;;
55674;SDS011;41562;44.330;23.802;2023-07-24T05:26:34;2.65;;;1.92;;
55674;SDS011;41562;44.330;23.802;2023-07-24T05:29:26;3.53;;;1.83;;
55674;SDS011;41562;44.330;23.802;2023-07-24T05:32:26;3.00;;;2.00;;
55674;SDS011;41562;44.330;23.802;2023-07-24T05:35:18;3.05;;;2.03;;
55674;SDS011;41562;44.330;23.802;2023-07-24T05:38:16;5.07;;;2.33;;
55674;SDS011;41562;44.330;23.802;2023-07-24T05:41:11;2.75;;;1.92;;
55674;SDS011;41562;44.330;23.802;2023-07-24T05:44:04;3.40;;;2.00;;
55674;SDS011;41562;44.330;23.802;2023-07-24T05:46:58;2.88;;;1.92;;
55674;SDS011;41562;44.330;23.802;2023-07-24T05:49:49;5.57;;;2.28;;
55674;SDS011;41562;44.330;23.802;2023-07-24T05:52:44;3.55;;;2.08;;
55674;SDS011;41562;44.330;23.802;2023-07-24T05:55:39;3.97;;;2.15;;
55674;SDS011;41562;44.330;23.802;2023-07-24T05:58:34;3.45;;;2.28;;
55674;SDS011;41562;44.330;23.802;2023-07-24T06:01:26;3.05;;;2.28;;
55674;SDS011;41562;44.330;23.802;2023-07-24T06:04:24;2.85;;;1.90;;
55674;SDS011;41562;44.330;23.802;2023-07-24T06:07:20;3.35;;;2.30;;
55674;SDS011;41562;44.330;23.802;2023-07-24T06:10:15;3.22;;;2.20;;
55674;SDS011;41562;44.330;23.802;2023-07-24T06:13:10;3.53;;;2.08;;
55674;SDS011;41562;44.330;23.802;2023-07-24T06:16:09;5.68;;;2.47;;
55674;SDS011;41562;44.330;23.802;2023-07-24T06:19:04;4.45;;;2.75;;
55674;SDS011;41562;44.330;23.802;2023-07-24T06:21:59;3.58;;;2.30;;
55674;SDS011;41562;44.330;23.802;2023-07-24T06:24:51;4.53;;;2.47;;
55674;SDS011;41562;44.330;23.802;2023-07-24T06:27:45;5.63;;;2.65;;
55674;SDS011;41562;44.330;23.802;2023-07-24T06:30:38;4.05;;;2.58;;
55674;SDS011;41562;44.330;23.802;2023-07-24T06:33:33;4.60;;;2.55;;
55674;SDS011;41562;44.330;23.802;2023-07-24T06:36:28;3.90;;;2.63;;
55674;SDS011;41562;44.330;23.802;2023-07-24T06:39:24;4.63;;;2.40;;
55674;SDS011;41562;44.330;23.802;2023-07-24T06:42:20;5.30;;;2.30;;
55674;SDS011;41562;44.330;23.802;2023-07-24T06:45:16;3.42;;;2.38;;
55674;SDS011;41562;44.330;23.802;2023-07-24T06:48:09;5.20;;;2.22;;
55674;SDS011;41562;44.330;23.802;2023-07-24T06:51:01;6.28;;;2.30;;
55674;SDS011;41562;44.330;23.802;2023-07-24T06:53:54;4.32;;;2.65;;
55674;SDS011;41562;44.330;23.802;2023-07-24T06:56:52;4.75;;;2.63;;
55674;SDS011;41562;44.330;23.802;2023-07-24T06:59:44;4.13;;;2.30;;
55674;SDS011;41562;44.330;23.802;2023-07-24T07:02:39;6.53;;;3.15;;
55674;SDS011;41562;44.330;23.802;2023-07-24T07:05:31;3.08;;;2.42;;
55674;SDS011;41562;44.330;23.802;2023-07-24T07:08:30;4.93;;;2.85;;
55674;SDS011;41562;44.330;23.802;2023-07-24T07:11:22;4.82;;;3.13;;
55674;SDS011;41562;44.330;23.802;2023-07-24T07:14:17;5.13;;;3.25;;
55674;SDS011;41562;44.330;23.802;2023-07-24T07:17:14;5.57;;;2.72;;
55674;SDS011;41562;44.330;23.802;2023-07-24T07:20:06;4.18;;;2.70;;
55674;SDS011;41562;44.330;23.802;2023-07-24T07:22:58;4.30;;;2.75;;
55674;SDS011;41562;44.330;23.802;2023-07-24T07:25:51;4.03;;;2.42;;
55674;SDS011;41562;44.330;23.802;2023-07-24T07:28:46;4.35;;;2.67;;
55674;SDS011;41562;44.330;23.802;2023-07-24T07:31:41;4.72;;;2.97;;
55674;SDS011;41562;44.330;23.802;2023-07-24T07:34:41;5.38;;;2.58;;
55674;SDS011;41562;44.330;23.802;2023-07-24T07:37:34;4.03;;;2.33;;
55674;SDS011;41562;44.330;23.802;2023-07-24T07:40:36;4.68;;;3.13;;
55674;SDS011;41562;44.330;23.802;2023-07-24T07:43:31;5.43;;;2.28;;
55674;SDS011;41562;44.330;23.802;2023-07-24T07:46:28;5.28;;;3.60;;
55674;SDS011;41562;44.330;23.802;2023-07-24T07:49:26;6.80;;;3.20;;
55674;SDS011;41562;44.330;23.802;2023-07-24T07:52:21;3.45;;;2.85;;
55674;SDS011;41562;44.330;23.802;2023-07-24T07:55:13;3.60;;;2.95;;
55674;SDS011;41562;44.330;23.802;2023-07-24T07:58:08;5.35;;;3.08;;
55674;SDS011;41562;44.330;23.802;2023-07-24T08:01:06;6.75;;;3.25;;
55674;SDS011;41562;44.330;23.802;2023-07-24T08:04:01;4.60;;;2.95;;
55674;SDS011;41562;44.330;23.802;2023-07-24T08:06:54;6.07;;;2.95;;
55674;SDS011;41562;44.330;23.802;2023-07-24T08:09:46;6.75;;;3.03;;
55674;SDS011;41562;44.330;23.802;2023-07-24T08:12:40;3.78;;;2.90;;
55674;SDS011;41562;44.330;23.802;2023-07-24T08:15:36;4.18;;;3.30;;
55674;SDS011;41562;44.330;23.802;2023-07-24T08:18:32;4.50;;;3.40;;
55674;SDS011;41562;44.330;23.802;2023-07-24T08:21:27;5.13;;;3.30;;
55674;SDS011;41562;44.330;23.802;2023-07-24T08:24:19;6.05;;;3.40;;
55674;SDS011;41562;44.330;23.802;2023-07-24T08:27:11;4.55;;;2.97;;
55674;SDS011;41562;44.330;23.802;2023-07-24T08:30:09;4.80;;;3.22;;
55674;SDS011;41562;44.330;23.802;2023-07-24T08:33:01;4.93;;;2.90;;
55674;SDS011;41562;44.330;23.802;2023-07-24T08:36:03;4.15;;;2.90;;
55674;SDS011;41562;44.330;23.802;2023-07-24T08:39:00;3.80;;;2.85;;
55674;SDS011;41562;44.330;23.802;2023-07-24T08:41:56;3.63;;;2.53;;
55674;SDS011;41562;44.330;23.802;2023-07-24T08:44:48;3.40;;;2.78;;
55674;SDS011;41562;44.330;23.802;2023-07-24T08:47:45;5.57;;;2.60;;
55674;SDS011;41562;44.330;23.802;2023-07-24T08:50:37;4.85;;;2.53;;
55674;SDS011;41562;44.330;23.802;2023-07-24T08:53:34;3.78;;;2.65;;
55674;SDS011;41562;44.330;23.802;2023-07-24T08:56:31;2.50;;;2.03;;
55674;SDS011;41562;44.330;23.802;2023-07-24T08:59:26;5.32;;;2.83;;
55674;SDS011;41562;44.330;23.802;2023-07-24T09:02:21;4.78;;;2.40;;
55674;SDS011;41562;44.330;23.802;2023-07-24T09:05:16;3.58;;;2.63;;
55674;SDS011;41562;44.330;23.802;2023-07-24T09:08:12;4.53;;;2.75;;
55674;SDS011;41562;44.330;23.802;2023-07-24T09:11:08;4.13;;;2.60;;
55674;SDS011;41562;44.330;23.802;2023-07-24T09:14:01;4.90;;;2.55;;
55674;SDS011;41562;44.330;23.802;2023-07-24T09:17:08;2.78;;;2.33;;
55674;SDS011;41562;44.330;23.802;2023-07-24T09:20:01;3.45;;;2.22;;
55674;SDS011;41562;44.330;23.802;2023-07-24T09:22:54;5.18;;;2.40;;
55674;SDS011;41562;44.330;23.802;2023-07-24T09:26:06;3.50;;;2.65;;
55674;SDS011;41562;44.330;23.802;2023-07-24T09:28:59;3.47;;;2.58;;
55674;SDS011;41562;44.330;23.802;2023-07-24T09:31:51;3.55;;;2.28;;
55674;SDS011;41562;44.330;23.802;2023-07-24T09:34:49;3.40;;;2.13;;
55674;SDS011;41562;44.330;23.802;2023-07-24T09:37:41;3.50;;;2.70;;
55674;SDS011;41562;44.330;23.802;2023-07-24T09:40:40;2.85;;;2.40;;
55674;SDS011;41562;44.330;23.802;2023-07-24T09:43:42;3.85;;;2.65;;
55674;SDS011;41562;44.330;23.802;2023-07-24T09:46:34;3.20;;;2.00;;
55674;SDS011;41562;44.330;23.802;2023-07-24T09:49:38;4.45;;;2.70;;
55674;SDS011;41562;44.330;23.802;2023-07-24T09:52:30;4.32;;;3.00;;
55674;SDS011;41562;44.330;23.802;2023-07-24T09:55:27;5.60;;;2.70;;
55674;SDS011;41562;44.330;23.802;2023-07-24T09:58:26;3.58;;;2.85;;
55674;SDS011;41562;44.330;23.802;2023-07-24T10:01:18;5.47;;;2.70;;
55674;SDS011;41562;44.330;23.802;2023-07-24T10:04:11;3.72;;;2.25;;
55674;SDS011;41562;44.330;23.802;2023-07-24T10:07:06;5.53;;;2.55;;
55674;SDS011;41562;44.330;23.802;2023-07-24T10:10:05;4.50;;;2.30;;
55674;SDS011;41562;44.330;23.802;2023-07-24T10:13:07;4.55;;;2.70;;
55674;SDS011;41562;44.330;23.802;2023-07-24T10:16:03;4.68;;;2.83;;
55674;SDS011;41562;44.330;23.802;2023-07-24T10:19:12;4.35;;;2.47;;
55674;SDS011;41562;44.330;23.802;2023-07-24T10:25:01;3.38;;;2.28;;
55674;SDS011;41562;44.330;23.802;2023-07-24T10:28:03;4.15;;;2.00;;
55674;SDS011;41562;44.330;23.802;2023-07-24T10:31:02;3.72;;;2.65;;
55674;SDS011;41562;44.330;23.802;2023-07-24T10:33:54;3.00;;;2.08;;
55674;SDS011;41562;44.330;23.802;2023-07-24T10:36:50;4.05;;;2.55;;
55674;SDS011;41562;44.330;23.802;2023-07-24T10:39:56;3.47;;;2.35;;
55674;SDS011;41562;44.330;23.802;2023-07-24T10:43:10;5.10;;;2.45;;
55674;SDS011;41562;44.330;23.802;2023-07-24T10:46:04;3.72;;;2.45;;
55674;SDS011;41562;44.330;23.802;2023-07-24T10:49:00;4.28;;;2.33;;
55674;SDS011;41562;44.330;23.802;2023-07-24T10:51:58;3.90;;;2.30;;
55674;SDS011;41562;44.330;23.802;2023-07-24T10:54:50;4.32;;;2.20;;
55674;SDS011;41562;44.330;23.802;2023-07-24T10:57:43;4.30;;;2.42;;
55674;SDS011;41562;44.330;23.802;2023-07-24T11:00:36;5.13;;;2.42;;
55674;SDS011;41562;44.330;23.802;2023-07-24T11:03:39;4.00;;;2.45;;
55674;SDS011;41562;44.330;23.802;2023-07-24T11:06:35;2.85;;;2.17;;
55674;SDS011;41562;44.330;23.802;2023-07-24T11:09:34;3.95;;;2.22;;
55674;SDS011;41562;44.330;23.802;2023-07-24T11:12:28;4.30;;;2.55;;
55674;SDS011;41562;44.330;23.802;2023-07-24T11:15:24;4.03;;;2.40;;
55674;SDS011;41562;44.330;23.802;2023-07-24T11:18:16;3.17;;;2.00;;
55674;SDS011;41562;44.330;23.802;2023-07-24T11:21:08;3.97;;;2.20;;
55674;SDS011;41562;44.330;23.802;2023-07-24T11:24:06;4.13;;;2.00;;
55674;SDS011;41562;44.330;23.802;2023-07-24T11:26:58;3.47;;;2.25;;
55674;SDS011;41562;44.330;23.802;2023-07-24T11:29:59;4.88;;;2.30;;
55674;SDS011;41562;44.330;23.802;2023-07-24T11:32:56;4.72;;;2.05;;
55674;SDS011;41562;44.330;23.802;2023-07-24T11:35:53;4.40;;;2.40;;
55674;SDS011;41562;44.330;23.802;2023-07-24T11:38:46;2.90;;;1.95;;
55674;SDS011;41562;44.330;23.802;2023-07-24T11:41:41;5.38;;;2.22;;
55674;SDS011;41562;44.330;23.802;2023-07-24T11:44:36;3.70;;;2.10;;
55674;SDS011;41562;44.330;23.802;2023-07-24T11:47:28;4.80;;;2.15;;
55674;SDS011;41562;44.330;23.802;2023-07-24T11:50:41;4.18;;;2.40;;
55674;SDS011;41562;44.330;23.802;2023-07-24T11:53:34;4.20;;;2.40;;
55674;SDS011;41562;44.330;23.802;2023-07-24T11:56:26;6.25;;;2.78;;
55674;SDS011;41562;44.330;23.802;2023-07-24T11:59:24;4.82;;;2.67;;
55674;SDS011;41562;44.330;23.802;2023-07-24T12:02:22;4.93;;;2.80;;
55674;SDS011;41562;44.330;23.802;2023-07-24T12:05:14;4.07;;;2.22;;
55674;SDS011;41562;44.330;23.802;2023-07-24T12:08:14;4.40;;;2.47;;
55674;SDS011;41562;44.330;23.802;2023-07-24T12:11:17;7.50;;;2.72;;
55674;SDS011;41562;44.330;23.802;2023-07-24T12:14:12;7.35;;;2.85;;
55674;SDS011;41562;44.330;23.802;2023-07-24T12:17:06;3.38;;;2.58;;
55674;SDS011;41562;44.330;23.802;2023-07-24T12:20:04;4.35;;;2.58;;
55674;SDS011;41562;44.330;23.802;2023-07-24T12:23:01;3.58;;;2.50;;
55674;SDS011;41562;44.330;23.802;2023-07-24T12:26:00;4.70;;;2.67;;
55674;SDS011;41562;44.330;23.802;2023-07-24T12:28:51;4.28;;;2.28;;
55674;SDS011;41562;44.330;23.802;2023-07-24T12:31:43;4.50;;;3.10;;
55674;SDS011;41562;44.330;23.802;2023-07-24T12:34:35;5.63;;;2.60;;
55674;SDS011;41562;44.330;23.802;2023-07-24T12:37:30;3.28;;;2.22;;
55674;SDS011;41562;44.330;23.802;2023-07-24T12:40:27;5.13;;;2.95;;
55674;SDS011;41562;44.330;23.802;2023-07-24T12:43:26;6.25;;;3.70;;
55674;SDS011;41562;44.330;23.802;2023-07-24T12:46:21;5.22;;;2.92;;
55674;SDS011;41562;44.330;23.802;2023-07-24T12:49:13;6.47;;;2.85;;
55674;SDS011;41562;44.330;23.802;2023-07-24T12:52:08;7.88;;;2.65;;
55674;SDS011;41562;44.330;23.802;2023-07-24T12:55:04;4.65;;;2.88;;
55674;SDS011;41562;44.330;23.802;2023-07-24T12:57:56;5.00;;;2.75;;
55674;SDS011;41562;44.330;23.802;2023-07-24T13:00:51;3.15;;;2.85;;
55674;SDS011;41562;44.330;23.802;2023-07-24T13:03:46;3.78;;;2.88;;
55674;SDS011;41562;44.330;23.802;2023-07-24T13:06:41;5.07;;;3.10;;
55674;SDS011;41562;44.330;23.802;2023-07-24T13:09:36;5.47;;;2.85;;
55674;SDS011;41562;44.330;23.802;2023-07-24T13:12:31;5.50;;;3.10;;
55674;SDS011;41562;44.330;23.802;2023-07-24T13:15:26;4.32;;;2.85;;
55674;SDS011;41562;44.330;23.802;2023-07-24T13:18:22;4.28;;;2.80;;
55674;SDS011;41562;44.330;23.802;2023-07-24T13:21:23;5.03;;;2.75;;
55674;SDS011;41562;44.330;23.802;2023-07-24T13:24:15;5.95;;;3.22;;
55674;SDS011;41562;44.330;23.802;2023-07-24T13:27:13;8.50;;;2.90;;
55674;SDS011;41562;44.330;23.802;2023-07-24T13:30:11;6.43;;;3.65;;
55674;SDS011;41562;44.330;23.802;2023-07-24T13:33:03;6.32;;;3.20;;
55674;SDS011;41562;44.330;23.802;2023-07-24T13:35:58;5.70;;;3.25;;
55674;SDS011;41562;44.330;23.802;2023-07-24T13:38:53;5.97;;;3.60;;
55674;SDS011;41562;44.330;23.802;2023-07-24T13:41:45;7.80;;;4.32;;
55674;SDS011;41562;44.330;23.802;2023-07-24T13:44:37;6.93;;;3.55;;
55674;SDS011;41562;44.330;23.802;2023-07-24T13:47:29;5.63;;;3.72;;
55674;SDS011;41562;44.330;23.802;2023-07-24T13:50:24;7.72;;;3.83;;
55674;SDS011;41562;44.330;23.802;2023-07-24T13:53:22;6.25;;;4.05;;
55674;SDS011;41562;44.330;23.802;2023-07-24T13:56:17;6.97;;;4.10;;
55674;SDS011;41562;44.330;23.802;2023-07-24T13:59:18;7.18;;;3.90;;
55674;SDS011;41562;44.330;23.802;2023-07-24T14:02:13;8.23;;;4.05;;
55674;SDS011;41562;44.330;23.802;2023-07-24T14:05:08;7.55;;;4.55;;
55674;SDS011;41562;44.330;23.802;2023-07-24T14:08:00;8.05;;;4.22;;
55674;SDS011;41562;44.330;23.802;2023-07-24T14:10:55;11.23;;;5.13;;
55674;SDS011;41562;44.330;23.802;2023-07-24T14:13:51;7.93;;;4.22;;
55674;SDS011;41562;44.330;23.802;2023-07-24T14:16:43;9.95;;;4.93;;
55674;SDS011;41562;44.330;23.802;2023-07-24T14:19:36;9.52;;;5.03;;
55674;SDS011;41562;44.330;23.802;2023-07-24T14:22:32;11.73;;;5.38;;
55674;SDS011;41562;44.330;23.802;2023-07-24T14:25:31;9.25;;;5.35;;
55674;SDS011;41562;44.330;23.802;2023-07-24T14:28:26;13.68;;;6.10;;
55674;SDS011;41562;44.330;23.802;2023-07-24T14:31:24;12.80;;;6.65;;
55674;SDS011;41562;44.330;23.802;2023-07-24T14:34:22;14.60;;;6.32;;
55674;SDS011;41562;44.330;23.802;2023-07-24T14:37:17;11.93;;;5.63;;
55674;SDS011;41562;44.330;23.802;2023-07-24T14:40:19;14.05;;;6.18;;
55674;SDS011;41562;44.330;23.802;2023-07-24T14:43:14;13.40;;;5.13;;
55674;SDS011;41562;44.330;23.802;2023-07-24T14:46:14;13.90;;;5.90;;
55674;SDS011;41562;44.330;23.802;2023-07-24T14:49:09;12.63;;;6.25;;
55674;SDS011;41562;44.330;23.802;2023-07-24T14:52:07;10.93;;;5.50;;
55674;SDS011;41562;44.330;23.802;2023-07-24T14:55:02;9.32;;;4.90;;
55674;SDS011;41562;44.330;23.802;2023-07-24T14:57:54;14.00;;;5.88;;
55674;SDS011;41562;44.330;23.802;2023-07-24T15:00:49;14.50;;;5.95;;
55674;SDS011;41562;44.330;23.802;2023-07-24T15:03:48;11.35;;;5.18;;
55674;SDS011;41562;44.330;23.802;2023-07-24T15:06:39;13.73;;;6.57;;
55674;SDS011;41562;44.330;23.802;2023-07-24T15:09:31;13.88;;;6.30;;
55674;SDS011;41562;44.330;23.802;2023-07-24T15:12:23;12.90;;;5.57;;
55674;SDS011;41562;44.330;23.802;2023-07-24T15:15:19;14.32;;;5.75;;
55674;SDS011;41562;44.330;23.802;2023-07-24T15:18:16;12.43;;;5.78;;
55674;SDS011;41562;44.330;23.802;2023-07-24T15:21:12;13.85;;;5.97;;
55674;SDS011;41562;44.330;23.802;2023-07-24T15:24:11;13.20;;;5.75;;
55674;SDS011;41562;44.330;23.802;2023-07-24T15:27:11;12.45;;;5.43;;
55674;SDS011;41562;44.330;23.802;2023-07-24T15:30:09;11.45;;;5.07;;
55674;SDS011;41562;44.330;23.802;2023-07-24T15:33:04;12.88;;;5.60;;
55674;SDS011;41562;44.330;23.802;2023-07-24T15:36:03;11.35;;;5.60;;
55674;SDS011;41562;44.330;23.802;2023-07-24T15:38:58;11.98;;;4.80;;
55674;SDS011;41562;44.330;23.802;2023-07-24T15:42:01;10.85;;;5.57;;
55674;SDS011;41562;44.330;23.802;2023-07-24T15:44:58;15.00;;;6.00;;
55674;SDS011;41562;44.330;23.802;2023-07-24T15:47:59;13.10;;;5.88;;
55674;SDS011;41562;44.330;23.802;2023-07-24T15:50:54;11.70;;;5.43;;
55674;SDS011;41562;44.330;23.802;2023-07-24T15:53:51;10.25;;;5.45;;
55674;SDS011;41562;44.330;23.802;2023-07-24T15:56:49;14.13;;;5.45;;
55674;SDS011;41562;44.330;23.802;2023-07-24T15:59:46;10.38;;;5.40;;
55674;SDS011;41562;44.330;23.802;2023-07-24T16:02:44;12.20;;;6.53;;
55674;SDS011;41562;44.330;23.802;2023-07-24T16:05:39;13.77;;;5.85;;
55674;SDS011;41562;44.330;23.802;2023-07-24T16:08:31;11.30;;;5.57;;
55674;SDS011;41562;44.330;23.802;2023-07-24T16:11:23;14.85;;;5.90;;
55674;SDS011;41562;44.330;23.802;2023-07-24T16:14:22;10.50;;;5.30;;
55674;SDS011;41562;44.330;23.802;2023-07-24T16:17:16;11.80;;;5.65;;
55674;SDS011;41562;44.330;23.802;2023-07-24T16:20:07;13.77;;;6.15;;
55674;SDS011;41562;44.330;23.802;2023-07-24T16:23:03;15.10;;;6.00;;
55674;SDS011;41562;44.330;23.802;2023-07-24T16:25:59;11.80;;;5.88;;
55674;SDS011;41562;44.330;23.802;2023-07-24T16:28:54;10.27;;;5.60;;
55674;SDS011;41562;44.330;23.802;2023-07-24T16:31:48;10.90;;;5.75;;
55674;SDS011;41562;44.330;23.802;2023-07-24T16:34:45;10.15;;;5.15;;
55674;SDS011;41562;44.330;23.802;2023-07-24T16:37:40;14.40;;;5.32;;
55674;SDS011;41562;44.330;23.802;2023-07-24T16:40:33;10.40;;;4.63;;
55674;SDS011;41562;44.330;23.802;2023-07-24T16:43:28;9.60;;;5.15;;
55674;SDS011;41562;44.330;23.802;2023-07-24T16:46:32;10.50;;;4.97;;
55674;SDS011;41562;44.330;23.802;2023-07-24T16:49:30;10.27;;;4.85;;
55674;SDS011;41562;44.330;23.802;2023-07-24T16:52:29;10.15;;;5.07;;
55674;SDS011;41562;44.330;23.802;2023-07-24T16:55:31;7.20;;;4.30;;
55674;SDS011;41562;44.330;23.802;2023-07-24T16:58:30;11.50;;;6.13;;
55674;SDS011;41562;44.330;23.802;2023-07-24T17:46:32;11.00;;;5.18;;
55674;SDS011;41562;44.330;23.802;2023-07-24T17:49:45;20.88;;;6.10;;
55674;SDS011;41562;44.330;23.802;2023-07-24T17:53:11;14.75;;;6.13;;
55674;SDS011;41562;44.330;23.802;2023-07-24T17:56:07;10.30;;;4.82;;
55674;SDS011;41562;44.330;23.802;2023-07-24T17:58:59;11.40;;;6.65;;
55674;SDS011;41562;44.330;23.802;2023-07-24T18:05:32;17.75;;;6.13;;
55674;SDS011;41562;44.330;23.802;2023-07-24T18:08:46;14.77;;;6.63;;
55674;SDS011;41562;44.330;23.802;2023-07-24T18:20:37;14.13;;;6.90;;
55674;SDS011;41562;44.330;23.802;2023-07-24T18:23:32;11.57;;;6.63;;
55674;SDS011;41562;44.330;23.802;2023-07-24T18:26:24;13.95;;;6.30;;
55674;SDS011;41562;44.330;23.802;2023-07-24T18:29:16;15.15;;;6.72;;
55674;SDS011;41562;44.330;23.802;2023-07-24T18:40:49;13.68;;;6.68;;
55674;SDS011;41562;44.330;23.802;2023-07-24T18:43:44;11.70;;;6.53;;